Time;durP1;ratioP1;P1;durP2;ratioP2;P2;SDS_P1;SDS_P2;PMS_P1;PMS_P2;Temp;Humidity;BMP_temperature;BMP_pressure;BME280_temperature;BME280_humidity;BME280_pressure;Samples;Min_cycle;Max_cycle;Signal;HPM_P1;HPM_P2
2023/02/16 00:00:28;;;;;;;82.10;39.40;;;;;;;-1.38;99.79;101214.75;1745567;81;25454;-49
2023/02/16 00:02:56;;;;;;;87.12;50.03;;;;;;;-1.39;99.80;101213.11;1745573;82;26101;-48
2023/02/16 00:05:33;;;;;;;82.65;34.27;;;;;;;-1.39;99.75;101205.66;1745388;81;25542;-47
2023/02/16 00:08:01;;;;;;;79.03;31.27;;;;;;;-1.41;99.57;101203.22;1745573;82;25563;-49
2023/02/16 00:10:33;;;;;;;81.45;32.08;;;;;;;-1.42;99.52;101198.92;1745432;82;25695;-46
2023/02/16 00:15:58;;;;;;;;;;;;;;;-1.42;99.77;101191.48;1748093;82;29621;-51
2023/02/16 00:18:25;;;;;;;75.45;28.52;;;;;;;-1.43;99.75;101177.89;1745454;81;27343;-48
2023/02/16 00:20:51;;;;;;;85.25;32.45;;;;;;;-1.44;99.83;101183.72;1744457;82;25870;-51
2023/02/16 00:23:17;;;;;;;78.80;32.98;;;;;;;-1.44;99.92;101179.73;1744155;82;26039;-51
2023/02/16 00:25:43;;;;;;;85.57;34.38;;;;;;;-1.44;100.00;101171.77;1744450;81;25571;-51
2023/02/16 00:28:17;;;;;;;94.85;35.75;;;;;;;-1.43;100.00;101171.25;1744275;82;27483;-48
2023/02/16 00:30:45;;;;;;;86.95;33.95;;;;;;;-1.42;100.00;101163.61;1744067;82;25646;-49
2023/02/16 00:33:19;;;;;;;92.78;34.95;;;;;;;-1.43;100.00;101154.00;1724824;83;25720;-48
2023/02/16 00:35:48;;;;;;;90.95;34.10;;;;;;;-1.43;100.00;101150.02;1744165;81;25725;-48
2023/02/16 00:38:15;;;;;;;94.15;36.23;;;;;;;-1.41;100.00;101157.29;1745661;81;25482;-48
2023/02/16 00:40:43;;;;;;;94.03;33.02;;;;;;;-1.41;100.00;101159.42;1745533;82;27508;-48
2023/02/16 00:43:14;;;;;;;92.10;34.85;;;;;;;-1.43;100.00;101147.38;1745335;82;25446;-48
2023/02/16 00:45:41;;;;;;;97.17;36.60;;;;;;;-1.43;100.00;101140.73;1724000;83;25696;-48
2023/02/16 00:48:11;;;;;;;95.65;36.00;;;;;;;-1.43;100.00;101138.08;1739621;82;25536;-48
2023/02/16 00:50:37;;;;;;;93.58;36.85;;;;;;;-1.43;100.00;101138.08;1726041;83;25343;-47
2023/02/16 00:53:03;;;;;;;94.92;38.20;;;;;;;-1.41;100.00;101137.38;1745432;82;27463;-49
2023/02/16 00:55:36;;;;;;;98.97;40.78;;;;;;;-1.43;100.00;101131.45;1726003;83;25578;-47
2023/02/16 00:58:22;;;;;;;105.95;43.28;;;;;;;-1.42;100.00;101131.23;1739661;82;25553;-48
2023/02/16 01:01:01;;;;;;;117.70;44.63;;;;;;;-1.43;100.00;101126.14;1725311;83;25640;-50
2023/02/16 01:03:32;;;;;;;113.10;40.75;;;;;;;-1.42;100.00;101131.77;1737570;82;25569;-48
2023/02/16 01:11:30;;;;;;;100.53;40.33;;;;;;;-1.42;100.00;101131.77;1669953;85;25621;-47
2023/02/16 01:13:58;;;;;;;105.67;40.58;;;;;;;-1.44;100.00;101124.53;1669832;85;25621;-46
2023/02/16 01:16:36;;;;;;;97.97;41.40;;;;;;;-1.44;100.00;101124.53;1669933;85;25436;-47
2023/02/16 01:19:04;;;;;;;107.90;40.12;;;;;;;-1.45;100.00;101121.55;1721238;83;27300;-48
2023/02/16 01:21:32;;;;;;;96.40;40.12;;;;;;;-1.46;100.00;101117.26;1724257;83;25502;-47
2023/02/16 01:23:58;;;;;;;97.27;38.73;;;;;;;-1.47;100.00;101116.98;1724303;83;25566;-47
2023/02/16 01:26:26;;;;;;;96.50;39.75;;;;;;;-1.48;100.00;101110.03;1724196;83;25649;-48
2023/02/16 01:28:52;;;;;;;102.38;40.73;;;;;;;-1.52;99.95;101098.50;1724296;83;25490;-47
2023/02/16 01:31:18;;;;;;;104.90;40.05;;;;;;;-1.54;99.73;101101.07;1724391;83;27519;-47
2023/02/16 01:33:44;;;;;;;109.50;41.20;;;;;;;-1.57;99.63;101102.81;1724293;83;25451;-46
2023/02/16 01:36:34;;;;;;;103.27;40.80;;;;;;;-1.59;99.48;101104.86;1724413;83;25610;-47
2023/02/16 01:39:04;;;;;;;94.17;38.90;;;;;;;-1.62;99.48;101099.44;1733889;80;25761;-47
2023/02/16 01:41:57;;;;;;;101.47;39.13;;;;;;;-1.64;99.55;101100.17;1791292;80;25397;-46
2023/02/16 01:44:35;;;;;;;100.47;39.25;;;;;;;-1.67;99.23;101099.25;1791323;79;29602;-47
2023/02/16 01:47:18;;;;;;;98.22;39.92;;;;;;;-1.74;98.68;101093.16;1736724;82;25845;-47
2023/02/16 01:49:45;;;;;;;94.87;38.00;;;;;;;-1.81;98.52;101091.84;1734227;82;25585;-47
2023/02/16 01:52:33;;;;;;;97.30;38.20;;;;;;;-1.84;98.48;101087.46;1736879;82;25600;-46
2023/02/16 01:55:20;;;;;;;103.33;40.57;;;;;;;-1.88;98.46;101083.09;1734722;82;25585;-46
2023/02/16 01:58:03;;;;;;;105.00;41.37;;;;;;;-1.92;98.38;101085.34;1736982;82;27701;-47
2023/02/16 02:00:54;;;;;;;97.20;39.55;;;;;;;-1.94;98.60;101082.08;1735313;82;25392;-47
2023/02/16 02:06:22;;;;;;;107.92;41.80;;;;;;;-1.98;98.85;101074.22;1736921;82;25622;-48
2023/02/16 02:09:08;;;;;;;109.15;42.65;;;;;;;-2.01;98.88;101070.68;1736164;82;25432;-48
2023/02/16 02:11:46;;;;;;;111.22;41.60;;;;;;;-2.01;99.36;101072.50;1736965;82;28650;-49
2023/02/16 02:14:26;;;;;;;108.52;41.88;;;;;;;-2.02;99.66;101069.04;1736898;82;25620;-48
2023/02/16 02:17:09;;;;;;;108.15;41.28;;;;;;;-2.01;99.65;101068.52;1736980;82;25477;-48
2023/02/16 02:19:46;;;;;;;105.27;39.78;;;;;;;-2.02;99.69;101071.69;1736985;82;25680;-48
2023/02/16 02:26:12;;;;;;;98.37;38.80;;;;;;;-2.05;99.65;101060.16;1789355;80;27670;-47
2023/02/16 02:29:08;;;;;;;102.62;39.95;;;;;;;-2.07;99.52;101062.21;1791140;79;27351;-47
2023/02/16 02:32:18;;;;;;;106.72;44.20;;;;;;;-2.10;99.43;101054.66;1791291;79;25571;-47
2023/02/16 02:35:02;;;;;;;98.95;39.98;;;;;;;-2.12;99.37;101056.72;1791293;80;25572;-48
2023/02/16 02:37:59;;;;;;;102.87;41.08;;;;;;;-2.16;99.28;101049.69;1791347;79;25448;-47
2023/02/16 02:40:53;;;;;;;102.15;39.88;;;;;;;-2.17;99.35;101044.07;1789721;79;27482;-47
2023/02/16 02:43:28;;;;;;;111.05;43.33;;;;;;;-2.20;99.50;101042.34;1791379;80;25430;-48
2023/02/16 02:46:11;;;;;;;106.12;41.88;;;;;;;-2.21;99.62;101040.70;1790263;79;26030;-48
2023/02/16 02:48:39;;;;;;;110.83;42.80;;;;;;;-2.23;99.85;101032.98;1791264;80;25565;-48
2023/02/16 02:51:29;;;;;;;111.57;45.48;;;;;;;-2.23;99.76;101038.28;1791235;79;25434;-47
2023/02/16 03:02:56;;;;;;;107.47;39.42;;;;;;;-2.26;99.89;101027.57;1759182;81;25515;-47
2023/02/16 03:05:28;;;;;;;113.70;40.45;;;;;;;-2.28;99.75;101023.51;1758130;81;26986;-47
2023/02/16 03:08:12;;;;;;;110.42;43.70;;;;;;;-2.31;99.49;101022.59;1742877;82;27495;-47
2023/02/16 03:13:26;;;;;;;118.62;42.43;;;;;;;-2.36;99.31;101013.92;1732375;82;25373;-47
2023/02/16 03:15:56;;;;;;;125.47;48.68;;;;;;;-2.39;99.19;101003.73;1732346;82;25563;-49
2023/02/16 03:29:45;;;;;;;105.22;43.33;;;;;;;-2.42;100.00;100992.20;1732483;82;25618;-49
2023/02/16 03:32:13;;;;;;;120.25;47.78;;;;;;;-2.41;100.00;100985.90;1732416;82;25394;-48
2023/02/16 03:34:43;;;;;;;123.50;46.98;;;;;;;-2.39;100.00;100985.70;1732335;82;29652;-48
2023/02/16 03:37:13;;;;;;;109.92;45.35;;;;;;;-2.41;100.00;100984.58;1732456;82;25613;-48
2023/02/16 03:42:25;;;;;;;119.57;45.08;;;;;;;-2.38;100.00;100981.52;1732398;82;25581;-48
2023/02/16 03:44:54;;;;;;;114.45;45.40;;;;;;;-2.38;100.00;100980.69;1732278;82;25578;-49
2023/02/16 03:47:20;;;;;;;115.20;45.43;;;;;;;-2.37;100.00;100984.98;1732271;82;27465;-48
2023/02/16 03:49:46;;;;;;;118.53;46.92;;;;;;;-2.37;100.00;100980.48;1732253;82;25556;-48
2023/02/16 03:52:12;;;;;;;131.95;49.40;;;;;;;-2.38;100.00;100981.52;1732294;82;25392;-48
2023/02/16 03:54:38;;;;;;;132.07;47.62;;;;;;;-2.38;100.00;100975.39;1729200;81;25543;-48
2023/02/16 03:57:05;;;;;;;116.12;45.08;;;;;;;-2.38;100.00;100973.57;1726904;83;31099;-48
2023/02/16 03:59:32;;;;;;;119.35;45.60;;;;;;;-2.40;100.00;100970.32;1726816;83;27595;-49
2023/02/16 04:02:01;;;;;;;121.10;47.25;;;;;;;-2.40;100.00;100958.39;1726741;83;27273;-48
2023/02/16 04:04:29;;;;;;;113.20;43.65;;;;;;;-2.41;99.88;100954.11;1726859;83;25551;-49
2023/02/16 04:06:55;;;;;;;116.20;46.90;;;;;;;-2.44;99.75;100951.34;1726757;83;25677;-50
2023/02/16 04:09:21;;;;;;;123.62;45.52;;;;;;;-2.44;100.00;100943.91;1726850;83;32694;-49
2023/02/16 04:14:32;;;;;;;111.28;44.33;;;;;;;-2.46;99.62;100937.49;1726855;83;25390;-48
2023/02/16 04:16:58;;;;;;;127.05;48.58;;;;;;;-2.49;99.47;100933.13;1726806;83;25421;-49
2023/02/16 04:19:24;;;;;;;112.47;46.28;;;;;;;-2.50;99.72;100938.94;1726795;83;34377;-49
2023/02/16 04:21:53;;;;;;;116.17;44.30;;;;;;;-2.49;99.95;100935.25;1726832;83;25393;-48
2023/02/16 04:24:20;;;;;;;78.07;31.57;;;;;;;-2.49;99.96;100929.95;1726940;83;27451;-48
2023/02/16 04:26:48;;;;;;;120.33;47.03;;;;;;;-2.48;100.00;100932.11;1726730;83;25358;-48
2023/02/16 04:29:15;;;;;;;122.72;47.08;;;;;;;-2.46;100.00;100934.84;1726834;83;25445;-48
2023/02/16 04:31:42;;;;;;;121.77;45.08;;;;;;;-2.46;100.00;100934.84;1726742;83;25603;-48
2023/02/16 04:34:08;;;;;;;132.47;48.87;;;;;;;-2.46;100.00;100933.52;1726822;83;25602;-48
2023/02/16 04:36:34;;;;;;;126.72;47.08;;;;;;;-2.45;100.00;100934.36;1726823;83;27521;-48
2023/02/16 04:39:00;;;;;;;114.60;45.03;;;;;;;-2.44;100.00;100931.98;1726745;83;25855;-48
2023/02/16 04:41:26;;;;;;;110.97;43.63;;;;;;;-2.44;100.00;100929.34;1726818;83;25568;-47
2023/02/16 04:43:53;;;;;;;103.53;42.35;;;;;;;-2.44;100.00;100922.20;1726753;83;25610;-50
2023/02/16 04:46:19;;;;;;;123.58;46.13;;;;;;;-2.44;100.00;100927.50;1726784;83;25374;-50
2023/02/16 04:48:47;;;;;;;123.47;47.03;;;;;;;-2.45;100.00;100919.27;1726812;83;29765;-48
2023/02/16 04:51:13;;;;;;;113.62;41.30;;;;;;;-2.45;100.00;100920.59;1726743;83;25829;-48
2023/02/16 04:53:39;;;;;;;105.25;42.53;;;;;;;-2.46;100.00;100922.12;1726823;83;25519;-48
2023/02/16 04:56:12;;;;;;;111.85;43.48;;;;;;;-2.44;100.00;100916.90;1732024;81;25574;-49
2023/02/16 04:58:39;;;;;;;123.02;43.95;;;;;;;-2.44;100.00;100918.74;1731475;82;25655;-49
2023/02/16 05:01:05;;;;;;;113.90;44.05;;;;;;;-2.44;100.00;100922.20;1732108;82;27832;-48
2023/02/16 05:03:33;;;;;;;116.75;45.55;;;;;;;-2.43;100.00;100921.71;1732254;82;25361;-50
2023/02/16 05:06:01;;;;;;;129.45;44.30;;;;;;;-2.40;100.00;100922.63;1732498;82;25568;-49
2023/02/16 05:08:28;;;;;;;118.30;43.42;;;;;;;-2.40;100.00;100921.30;1732347;82;25585;-49
2023/02/16 05:16:25;;;;;;;111.20;41.42;;;;;;;-2.39;100.00;100918.94;1732449;82;25394;-52
2023/02/16 05:18:51;;;;;;;128.23;47.13;;;;;;;-2.39;100.00;100917.61;1732440;82;25515;-49
2023/02/16 05:21:32;;;;;;;114.47;42.33;;;;;;;-2.38;100.00;100919.74;1732387;82;25570;-49
2023/02/16 05:24:09;;;;;;;119.97;45.40;;;;;;;-2.38;100.00;100923.23;1732573;82;25615;-50
2023/02/16 05:26:39;;;;;;;118.65;44.65;;;;;;;-2.39;100.00;100917.61;1732485;82;27529;-49
2023/02/16 05:29:07;;;;;;;120.40;46.18;;;;;;;-2.39;100.00;100910.19;1732303;82;25527;-52
2023/02/16 05:31:36;;;;;;;110.17;41.42;;;;;;;-2.41;100.00;100901.11;1732379;82;25392;-51
2023/02/16 05:34:02;;;;;;;114.55;42.30;;;;;;;-2.41;100.00;100898.98;1732469;82;27651;-49
2023/02/16 05:36:29;;;;;;;128.05;45.85;;;;;;;-2.42;100.00;100907.94;1732451;82;25575;-51
2023/02/16 05:38:58;;;;;;;115.80;42.23;;;;;;;-2.41;100.00;100910.91;1732400;82;27525;-50
2023/02/16 05:41:24;;;;;;;;;;;;;;;-2.41;100.00;100913.04;1734871;82;25998;-52
2023/02/16 05:43:59;;;;;;;113.22;41.58;;;;;;;-2.39;100.00;100918.13;1732441;82;25589;-50
2023/02/16 05:46:33;;;;;;;110.52;40.83;;;;;;;-2.39;100.00;100915.48;1732395;82;27703;-50
2023/02/16 05:49:05;;;;;;;121.62;43.58;;;;;;;-2.42;100.00;100912.72;1732522;82;25397;-49
2023/02/16 05:51:35;;;;;;;103.65;38.80;;;;;;;-2.44;100.00;100914.25;1732483;82;27481;-49
2023/02/16 05:54:05;;;;;;;110.48;39.85;;;;;;;-2.44;100.00;100912.13;1732405;82;25554;-49
2023/02/16 05:56:34;;;;;;;114.95;43.17;;;;;;;-2.45;100.00;100906.02;1732414;82;25600;-49
2023/02/16 05:59:00;;;;;;;113.17;40.40;;;;;;;-2.45;100.00;100904.69;1732356;82;25528;-49
2023/02/16 06:01:30;;;;;;;110.25;43.05;;;;;;;-2.44;100.00;100910.28;1732405;82;25417;-47
2023/02/16 06:03:56;;;;;;;110.10;41.05;;;;;;;-2.42;100.00;100907.94;1732415;82;27506;-50
2023/02/16 06:06:22;;;;;;;101.47;39.63;;;;;;;-2.41;100.00;100900.31;1732252;82;25615;-48
2023/02/16 06:08:48;;;;;;;102.38;41.00;;;;;;;-2.40;100.00;100904.56;1732403;82;25456;-48
2023/02/16 06:11:34;;;;;;;108.75;41.45;;;;;;;-2.38;100.00;100894.57;1730983;82;25650;-49
2023/02/16 06:14:09;;;;;;;108.65;40.83;;;;;;;-2.38;100.00;100896.73;1732511;82;25563;-49
2023/02/16 06:16:43;;;;;;;106.97;40.65;;;;;;;-2.35;100.00;100888.86;1729031;82;27493;-48
2023/02/16 06:19:13;;;;;;;108.32;40.88;;;;;;;-2.34;100.00;100882.03;1732385;82;26167;-49
2023/02/16 06:21:43;;;;;;;110.63;40.25;;;;;;;-2.32;100.00;100876.00;1732327;82;25581;-49
2023/02/16 06:24:15;;;;;;;113.15;41.42;;;;;;;-2.29;100.00;100885.39;1732469;82;25502;-48
2023/02/16 06:26:41;;;;;;;114.10;40.20;;;;;;;-2.27;100.00;100888.64;1732326;82;25459;-49
2023/02/16 06:29:10;;;;;;;112.68;40.83;;;;;;;-2.25;100.00;100895.86;1732456;82;27419;-50
2023/02/16 06:31:38;;;;;;;105.78;38.28;;;;;;;-2.21;100.00;100903.71;1732293;82;27274;-52
2023/02/16 06:34:06;;;;;;;107.92;40.58;;;;;;;-2.17;100.00;100896.16;1732387;82;25675;-48
2023/02/16 06:36:34;;;;;;;99.07;39.73;;;;;;;-2.14;100.00;100897.06;1732345;82;25589;-50
2023/02/16 06:39:04;;;;;;;111.40;40.50;;;;;;;-2.11;100.00;100903.25;1732422;82;25576;-48
2023/02/16 06:41:41;;;;;;;112.42;41.23;;;;;;;-2.08;100.00;100897.04;1732323;82;29717;-48
2023/02/16 06:44:14;;;;;;;111.05;40.67;;;;;;;-2.05;100.00;100896.31;1732419;82;25210;-48
2023/02/16 06:46:48;;;;;;;97.50;38.13;;;;;;;-2.01;100.00;100898.84;1732369;82;25363;-49
2023/02/16 06:49:20;;;;;;;113.08;41.95;;;;;;;-1.97;100.00;100892.91;1732327;82;27673;-49
2023/02/16 06:51:50;;;;;;;111.25;40.58;;;;;;;-1.91;100.00;100891.23;1732497;82;25415;-48
2023/02/16 06:54:22;;;;;;;109.07;40.40;;;;;;;-1.87;100.00;100888.48;1732401;82;27469;-49
2023/02/16 06:56:48;;;;;;;103.35;38.60;;;;;;;-1.79;100.00;100888.73;1726972;81;25812;-49
2023/02/16 06:59:14;;;;;;;104.03;40.35;;;;;;;-1.73;100.00;100890.03;1726959;83;25600;-51
2023/02/16 07:01:41;;;;;;;112.17;39.08;;;;;;;-1.65;100.00;100883.67;1726931;83;25719;-50
2023/02/16 07:04:14;;;;;;;98.95;40.85;;;;;;;-1.59;100.00;100882.00;1726950;83;25446;-49
2023/02/16 07:06:42;;;;;;;99.30;39.53;;;;;;;-1.50;100.00;100882.03;1726896;83;29720;-51
2023/02/16 07:09:09;;;;;;;111.25;39.30;;;;;;;-1.39;100.00;100882.67;1726926;83;25444;-49
2023/02/16 07:11:35;;;;;;;102.72;38.60;;;;;;;-1.27;100.00;100882.00;1726930;83;25570;-49
2023/02/16 07:14:02;;;;;;;110.50;41.65;;;;;;;-1.18;100.00;100880.16;1726881;83;25512;-48
2023/02/16 07:16:30;;;;;;;109.42;40.30;;;;;;;-1.08;100.00;100873.05;1727045;83;25595;-51
2023/02/16 07:18:56;;;;;;;109.03;41.10;;;;;;;-0.98;100.00;100874.70;1726931;83;29774;-49
2023/02/16 07:21:24;;;;;;;111.40;42.08;;;;;;;-0.84;100.00;100874.05;1726832;83;25389;-50
2023/02/16 07:23:51;;;;;;;110.80;42.15;;;;;;;-0.70;100.00;100873.41;1726901;83;25188;-52
2023/02/16 07:26:17;;;;;;;113.75;41.42;;;;;;;-0.59;100.00;100870.56;1726806;83;25629;-51
2023/02/16 07:28:43;;;;;;;111.95;39.95;;;;;;;-0.49;100.00;100862.89;1726890;83;25600;-49
2023/02/16 07:31:15;;;;;;;112.08;41.53;;;;;;;-0.41;100.00;100867.91;1726884;83;27530;-50
2023/02/16 07:33:47;;;;;;;108.92;44.08;;;;;;;-0.30;100.00;100872.99;1701931;83;25558;-48
2023/02/16 07:36:15;;;;;;;97.25;41.18;;;;;;;-0.15;100.00;100865.14;1726942;83;25412;-47
2023/02/16 07:38:41;;;;;;;107.45;40.28;;;;;;;0.09;100.00;100866.09;1726785;83;25614;-52
2023/02/16 07:41:07;;;;;;;117.35;45.20;;;;;;;0.34;100.00;100862.77;1726876;83;25469;-50
2023/02/16 07:43:34;;;;;;;106.63;42.98;;;;;;;0.49;100.00;100862.85;1726877;83;27505;-50
2023/02/16 07:46:02;;;;;;;109.55;40.45;;;;;;;0.77;100.00;100850.73;1726767;83;27400;-48
2023/02/16 07:48:28;;;;;;;107.37;43.02;;;;;;;1.01;100.00;100856.92;1726835;83;25779;-51
2023/02/16 07:50:55;;;;;;;117.17;44.73;;;;;;;1.11;100.00;100856.63;1725890;83;26204;-51
2023/02/16 07:53:21;;;;;;;113.30;43.28;;;;;;;1.12;100.00;100854.77;1726517;83;25623;-48
2023/02/16 07:55:49;;;;;;;113.15;43.08;;;;;;;1.17;100.00;100859.41;1726718;81;27526;-49
2023/02/16 07:58:26;;;;;;;101.75;41.33;;;;;;;1.22;100.00;100862.18;1726766;83;27497;-48
2023/02/16 08:00:43;;;;;;;99.40;40.70;;;;;;;1.32;100.00;100856.27;1725110;83;25617;-48
2023/02/16 08:03:09;;;;;;;99.30;40.70;;;;;;;1.42;100.00;100855.16;1726803;83;25643;-48
2023/02/16 08:05:35;;;;;;;106.60;41.08;;;;;;;1.46;99.93;100857.63;1726900;83;25673;-51
2023/02/16 08:08:02;;;;;;;103.55;40.88;;;;;;;1.54;99.50;100849.81;1726881;83;27021;-48
2023/02/16 08:10:28;;;;;;;102.55;40.78;;;;;;;1.56;98.42;100844.52;1726771;83;25694;-48
2023/02/16 08:12:54;;;;;;;98.90;38.30;;;;;;;1.62;98.63;100844.92;1726849;83;25562;-49
2023/02/16 08:15:20;;;;;;;99.20;41.77;;;;;;;1.74;98.89;100842.22;1726792;83;25660;-49
2023/02/16 08:17:48;;;;;;;101.65;41.65;;;;;;;1.82;98.42;100841.02;1726953;83;25412;-50
2023/02/16 08:20:14;;;;;;;110.08;42.30;;;;;;;1.93;98.64;100840.72;1726857;83;27403;-50
2023/02/16 08:22:40;;;;;;;94.75;40.70;;;;;;;2.08;99.11;100838.84;1726884;83;25556;-49
2023/02/16 08:25:10;;;;;;;100.65;40.23;;;;;;;2.23;99.12;100834.61;1726788;83;25534;-48
2023/02/16 08:27:37;;;;;;;110.52;42.75;;;;;;;2.40;99.31;100837.30;1726826;83;25560;-50
2023/02/16 08:30:12;;;;;;;99.15;39.50;;;;;;;2.64;99.02;100841.67;1726896;83;25554;-49
2023/02/16 08:32:41;;;;;;;103.92;43.00;;;;;;;2.72;96.90;100835.94;1726905;83;27459;-49
2023/02/16 08:35:12;;;;;;;108.00;43.68;;;;;;;2.93;97.53;100831.20;1726709;83;25530;-49
2023/02/16 08:37:38;;;;;;;103.15;42.50;;;;;;;3.07;95.99;100838.88;1726836;83;25573;-48
2023/02/16 08:40:12;;;;;;;105.55;44.48;;;;;;;3.34;98.45;100836.31;1726937;83;25545;-48
2023/02/16 08:42:40;;;;;;;101.40;45.23;;;;;;;3.54;96.43;100836.58;1727145;83;25408;-49
2023/02/16 08:45:09;;;;;;;108.47;44.63;;;;;;;3.74;96.84;100840.55;1726935;83;29690;-49
2023/02/16 08:47:37;;;;;;;104.60;42.98;;;;;;;3.90;95.41;100840.22;1726925;83;25381;-49
2023/02/16 08:50:11;;;;;;;113.90;44.88;;;;;;;4.17;95.27;100840.75;1726946;83;25463;-49
2023/02/16 08:52:37;;;;;;;100.10;44.83;;;;;;;4.40;95.55;100839.09;1727040;83;27728;-50
2023/02/16 08:55:08;;;;;;;100.75;43.87;;;;;;;4.62;94.38;100843.04;1726957;83;25487;-50
2023/02/16 08:57:36;;;;;;;97.12;39.65;;;;;;;4.67;91.25;100843.08;1745945;82;27682;-49
2023/02/16 09:02:58;;;;;;;91.80;42.00;;;;;;;4.99;91.57;100837.43;1746202;82;25467;-49
2023/02/16 09:05:29;;;;;;;96.00;41.65;;;;;;;5.17;91.14;100828.94;1746131;82;25589;-49
2023/02/16 09:07:57;;;;;;;95.07;41.98;;;;;;;5.47;91.41;100837.44;1746201;82;25510;-51
2023/02/16 09:10:25;;;;;;;98.58;40.95;;;;;;;5.67;91.79;100837.52;1746075;82;27484;-49
2023/02/16 09:12:51;;;;;;;95.97;40.75;;;;;;;6.04;92.29;100838.45;1746016;82;25678;-49
2023/02/16 09:15:17;;;;;;;96.30;41.48;;;;;;;6.18;89.48;100828.84;1746087;82;25599;-49
2023/02/16 09:17:44;;;;;;;95.92;41.30;;;;;;;6.32;89.94;100832.61;1746081;82;25679;-48
2023/02/16 09:20:12;;;;;;;93.82;43.17;;;;;;;6.48;87.97;100828.59;1746239;82;25594;-48
2023/02/16 09:22:38;;;;;;;92.60;40.83;;;;;;;6.52;85.69;100822.41;1746182;82;27582;-48
2023/02/16 09:25:10;;;;;;;98.72;41.28;;;;;;;6.52;86.11;100815.69;1746153;82;25825;-48
2023/02/16 09:27:37;;;;;;;98.62;42.13;;;;;;;6.64;85.83;100821.31;1746094;82;25545;-49
2023/02/16 09:30:10;;;;;;;101.55;42.58;;;;;;;6.94;86.30;100819.69;1722523;82;25639;-48
2023/02/16 09:32:39;;;;;;;98.25;40.73;;;;;;;7.17;85.04;100818.28;1746160;82;25593;-48
2023/02/16 09:35:11;;;;;;;92.97;40.12;;;;;;;7.37;85.65;100818.77;1746047;82;27538;-48
2023/02/16 09:37:37;;;;;;;95.25;39.75;;;;;;;7.79;86.84;100825.06;1746014;82;25374;-49
2023/02/16 09:40:11;;;;;;;115.12;82.12;;;;;;;8.12;83.96;100824.09;1746055;82;25527;-48
2023/02/16 09:42:51;;;;;;;89.77;39.13;;;;;;;8.25;83.85;100828.03;1722698;82;25609;-51
2023/02/16 09:45:21;;;;;;;85.75;38.80;;;;;;;8.77;82.14;100821.73;1746149;82;25421;-49
2023/02/16 09:47:53;;;;;;;82.78;39.13;;;;;;;8.99;82.66;100825.31;1746033;82;27618;-50
2023/02/16 09:50:26;;;;;;;92.90;46.35;;;;;;;9.18;80.28;100825.38;1745981;82;27270;-50
2023/02/16 09:53:07;;;;;;;82.22;38.20;;;;;;;9.39;79.85;100813.80;1746105;82;25644;-49
2023/02/16 09:55:46;;;;;;;83.75;38.65;;;;;;;9.44;77.48;100812.95;1745881;82;25648;-49
2023/02/16 09:58:17;;;;;;;;;;;;;;;9.37;74.67;100810.59;1734982;82;25546;-50
2023/02/16 10:01:21;;;;;;;84.70;38.02;;;;;;;9.27;74.76;100818.81;1732530;82;28338;-49
2023/02/16 10:04:06;;;;;;;89.30;38.15;;;;;;;9.10;72.11;100819.26;1732173;82;27312;-50
2023/02/16 10:07:07;;;;;;;78.02;36.77;;;;;;;8.85;71.23;100806.81;1719700;83;25682;-50
2023/02/16 10:09:35;;;;;;;83.37;37.03;;;;;;;8.82;72.90;100815.47;1718839;83;25519;-49
2023/02/16 10:12:07;;;;;;;99.45;72.82;;;;;;;9.11;74.77;100816.27;1743838;82;25662;-50
2023/02/16 10:15:00;;;;;;;82.27;38.92;;;;;;;9.26;73.99;100807.22;1727081;83;27481;-49
2023/02/16 10:17:35;;;;;;;76.35;36.00;;;;;;;9.44;73.96;100801.59;1743707;82;25413;-49
2023/02/16 10:20:33;;;;;;;79.40;36.60;;;;;;;9.75;72.45;100808.51;1726536;83;25577;-53
2023/02/16 10:23:29;;;;;;;74.25;35.40;;;;;;;9.81;69.31;100812.77;1743784;82;25677;-50
2023/02/16 10:26:21;;;;;;;77.03;33.63;;;;;;;9.88;66.07;100811.29;1743002;82;25725;-51
2023/02/16 10:28:55;;;;;;;78.40;36.05;;;;;;;10.14;71.09;100806.87;1727064;83;29079;-48
2023/02/16 10:31:46;;;;;;;80.38;34.58;;;;;;;10.64;68.12;100807.20;1743757;82;25723;-51
2023/02/16 10:34:40;;;;;;;77.80;35.48;;;;;;;10.82;66.99;100801.45;1727055;83;25677;-51
2023/02/16 10:37:30;;;;;;;77.20;41.75;;;;;;;10.65;65.44;100804.73;1718977;82;25698;-50
2023/02/16 10:40:23;;;;;;;85.80;60.88;;;;;;;10.81;65.74;100799.87;1726546;83;25186;-49
2023/02/16 10:43:00;;;;;;;75.52;35.33;;;;;;;11.06;65.93;100800.49;1740891;82;27487;-49
2023/02/16 10:45:52;;;;;;;76.33;34.63;;;;;;;11.29;63.15;100797.36;1733236;81;25774;-49
2023/02/16 10:48:21;;;;;;;72.90;34.98;;;;;;;11.34;59.26;100801.84;1753084;81;25616;-51
2023/02/16 10:51:01;;;;;;;82.75;44.30;;;;;;;11.27;61.46;100794.16;1753184;81;25412;-53
2023/02/16 10:53:36;;;;;;;92.02;70.17;;;;;;;11.12;61.14;100788.48;1753215;81;25555;-51
2023/02/16 10:56:42;;;;;;;73.12;40.12;;;;;;;11.08;62.62;100787.45;1752363;81;27606;-52
2023/02/16 10:59:17;;;;;;;115.67;103.53;;;;;;;11.16;61.26;100779.98;1745995;82;27346;-50
2023/02/16 11:01:48;;;;;;;77.15;41.45;;;;;;;11.34;61.84;100771.52;1745991;81;25370;-50
2023/02/16 11:04:37;;;;;;;96.30;80.72;;;;;;;11.45;62.25;100765.34;1745095;82;27695;-51
2023/02/16 11:07:14;;;;;;;80.45;48.40;;;;;;;11.76;61.84;100765.49;1746096;82;25610;-51
2023/02/16 11:09:44;;;;;;;67.85;31.60;;;;;;;12.02;62.26;100749.20;1746148;82;27583;-52
2023/02/16 11:12:35;;;;;;;69.58;35.35;;;;;;;12.25;59.31;100748.66;1746202;81;25574;-51
2023/02/16 11:15:07;;;;;;;70.45;32.88;;;;;;;12.26;60.62;100757.85;1746094;82;25607;-50
2023/02/16 11:17:59;;;;;;;69.95;32.25;;;;;;;12.10;55.39;100749.83;1722709;82;25498;-50
2023/02/16 11:20:46;;;;;;;80.53;42.58;;;;;;;11.93;58.20;100743.16;1746100;82;25455;-51
2023/02/16 11:23:27;;;;;;;106.75;95.45;;;;;;;11.77;59.53;100750.81;1746246;82;28088;-51
2023/02/16 11:26:04;;;;;;;69.87;31.50;;;;;;;11.88;61.71;100748.66;1746041;81;25396;-51
2023/02/16 11:28:41;;;;;;;75.22;34.80;;;;;;;11.96;57.65;100749.33;1746132;82;25494;-55
2023/02/16 11:31:37;;;;;;;75.17;34.90;;;;;;;11.69;57.72;100743.97;1746127;82;25561;-53
2023/02/16 11:34:09;;;;;;;78.90;42.93;;;;;;;11.54;56.51;100748.63;1746111;82;25538;-51
2023/02/16 11:36:44;;;;;;;88.90;75.28;;;;;;;11.41;58.70;100739.97;1746110;81;28051;-51
2023/02/16 11:39:24;;;;;;;71.12;33.58;;;;;;;11.49;60.12;100743.86;1746008;82;25543;-51
2023/02/16 11:41:55;;;;;;;74.32;34.58;;;;;;;11.67;58.84;100742.91;1746132;82;25602;-52
2023/02/16 11:44:40;;;;;;;73.40;32.65;;;;;;;11.38;57.24;100745.98;1746064;81;25614;-52
2023/02/16 11:47:27;;;;;;;66.72;32.28;;;;;;;11.30;59.18;100742.07;1746123;82;25572;-51
2023/02/16 11:50:22;;;;;;;72.30;34.43;;;;;;;11.35;60.13;100739.25;1746238;82;27775;-51
2023/02/16 11:52:52;;;;;;;66.20;32.40;;;;;;;11.61;60.73;100746.04;1745493;82;25726;-52
2023/02/16 11:55:32;;;;;;;70.67;33.05;;;;;;;11.96;61.94;100743.11;1746125;82;25451;-51
2023/02/16 11:58:26;;;;;;;75.50;32.13;;;;;;;12.26;61.09;100738.05;1746057;81;25577;-50
2023/02/16 12:01:25;;;;;;;69.30;32.90;;;;;;;12.49;59.64;100742.34;1746154;82;25433;-53
2023/02/16 12:04:08;;;;;;;64.82;31.87;;;;;;;12.56;60.57;100735.12;1746228;82;27509;-51
2023/02/16 12:07:22;;;;;;;66.33;30.00;;;;;;;12.68;56.56;100732.65;1745975;82;27483;-50
2023/02/16 12:09:56;;;;;;;64.60;31.35;;;;;;;12.51;56.62;100730.64;1745843;82;25472;-50
2023/02/16 12:12:58;;;;;;;66.45;31.17;;;;;;;12.15;57.68;100729.38;1745738;82;25838;-53
2023/02/16 12:15:51;;;;;;;62.90;31.35;;;;;;;12.09;58.51;100723.84;1745890;82;25400;-52
2023/02/16 12:18:43;;;;;;;66.45;33.02;;;;;;;12.21;59.30;100719.19;1746063;82;27586;-50
2023/02/16 12:21:45;;;;;;;63.35;34.58;;;;;;;12.47;59.41;100724.78;1746043;82;25413;-49
2023/02/16 12:24:47;;;;;;;64.10;32.73;;;;;;;12.76;60.52;100721.57;1745809;82;25381;-50